sensor_id;sensor_type;location;lat;lon;timestamp;temperature;humidity
5792;DHT22;2922;53.482;10.006;2024-01-15T00:00:44;1.60;99.90
5792;DHT22;2922;53.482;10.006;2024-01-15T00:03:10;1.60;99.90
5792;DHT22;2922;53.482;10.006;2024-01-15T00:05:36;1.60;99.90
5792;DHT22;2922;53.482;10.006;2024-01-15T00:08:01;1.60;99.90
5792;DHT22;2922;53.482;10.006;2024-01-15T00:10:27;1.60;99.90
5792;DHT22;2922;53.482;10.006;2024-01-15T00:12:52;1.60;99.90
5792;DHT22;2922;53.482;10.006;2024-01-15T00:15:18;1.60;99.90
5792;DHT22;2922;53.482;10.006;2024-01-15T00:17:43;1.60;99.90
5792;DHT22;2922;53.482;10.006;2024-01-15T00:20:10;1.60;99.90
5792;DHT22;2922;53.482;10.006;2024-01-15T00:22:36;1.60;99.90
5792;DHT22;2922;53.482;10.006;2024-01-15T00:25:02;1.60;99.90
5792;DHT22;2922;53.482;10.006;2024-01-15T00:27:28;1.60;99.90
5792;DHT22;2922;53.482;10.006;2024-01-15T00:29:53;1.70;99.90
5792;DHT22;2922;53.482;10.006;2024-01-15T00:32:20;1.70;99.90
5792;DHT22;2922;53.482;10.006;2024-01-15T00:34:45;1.70;99.90
5792;DHT22;2922;53.482;10.006;2024-01-15T00:37:11;1.70;99.90
5792;DHT22;2922;53.482;10.006;2024-01-15T00:39:37;1.60;99.90
5792;DHT22;2922;53.482;10.006;2024-01-15T00:42:02;1.70;99.90
5792;DHT22;2922;53.482;10.006;2024-01-15T00:44:28;1.60;99.90
5792;DHT22;2922;53.482;10.006;2024-01-15T00:46:54;1.60;99.90
5792;DHT22;2922;53.482;10.006;2024-01-15T00:49:19;1.60;99.90
5792;DHT22;2922;53.482;10.006;2024-01-15T00:51:45;1.60;99.90
5792;DHT22;2922;53.482;10.006;2024-01-15T00:54:10;1.60;99.90
5792;DHT22;2922;53.482;10.006;2024-01-15T00:56:36;1.60;99.90
5792;DHT22;2922;53.482;10.006;2024-01-15T00:59:02;1.60;99.90
5792;DHT22;2922;53.482;10.006;2024-01-15T01:01:28;1.50;99.90
5792;DHT22;2922;53.482;10.006;2024-01-15T01:03:53;1.60;99.90
5792;DHT22;2922;53.482;10.006;2024-01-15T01:06:19;1.60;99.90
5792;DHT22;2922;53.482;10.006;2024-01-15T01:08:44;1.60;99.90
5792;DHT22;2922;53.482;10.006;2024-01-15T01:11:14;1.60;99.90
5792;DHT22;2922;53.482;10.006;2024-01-15T01:13:40;1.70;99.90
5792;DHT22;2922;53.482;10.006;2024-01-15T01:16:05;1.70;99.90
5792;DHT22;2922;53.482;10.006;2024-01-15T01:18:31;1.80;99.90
5792;DHT22;2922;53.482;10.006;2024-01-15T01:20:56;1.80;99.90
5792;DHT22;2922;53.482;10.006;2024-01-15T01:23:22;1.80;99.90
5792;DHT22;2922;53.482;10.006;2024-01-15T01:25:47;1.90;99.90
5792;DHT22;2922;53.482;10.006;2024-01-15T01:28:13;1.90;99.90
5792;DHT22;2922;53.482;10.006;2024-01-15T01:30:38;1.90;99.90
5792;DHT22;2922;53.482;10.006;2024-01-15T01:33:04;1.90;99.90
5792;DHT22;2922;53.482;10.006;2024-01-15T01:35:30;1.90;99.90
5792;DHT22;2922;53.482;10.006;2024-01-15T01:37:56;1.90;99.90
5792;DHT22;2922;53.482;10.006;2024-01-15T01:40:21;2.00;99.90
5792;DHT22;2922;53.482;10.006;2024-01-15T01:42:48;2.00;99.90
5792;DHT22;2922;53.482;10.006;2024-01-15T01:45:13;1.90;99.90
5792;DHT22;2922;53.482;10.006;2024-01-15T01:47:39;1.90;99.90
5792;DHT22;2922;53.482;10.006;2024-01-15T01:50:05;1.90;99.90
5792;DHT22;2922;53.482;10.006;2024-01-15T01:52:31;1.90;99.90
5792;DHT22;2922;53.482;10.006;2024-01-15T01:54:57;1.90;99.90
5792;DHT22;2922;53.482;10.006;2024-01-15T01:57:24;1.90;99.90
5792;DHT22;2922;53.482;10.006;2024-01-15T01:59:50;1.90;99.90
5792;DHT22;2922;53.482;10.006;2024-01-15T02:02:16;1.90;99.90
5792;DHT22;2922;53.482;10.006;2024-01-15T02:04:42;1.80;99.90
5792;DHT22;2922;53.482;10.006;2024-01-15T02:07:08;1.80;99.90
5792;DHT22;2922;53.482;10.006;2024-01-15T02:09:35;1.80;99.90
5792;DHT22;2922;53.482;10.006;2024-01-15T02:12:01;1.80;99.90
5792;DHT22;2922;53.482;10.006;2024-01-15T02:14:26;1.80;99.90
5792;DHT22;2922;53.482;10.006;2024-01-15T02:16:52;1.80;99.90
5792;DHT22;2922;53.482;10.006;2024-01-15T02:19:18;1.80;99.90
5792;DHT22;2922;53.482;10.006;2024-01-15T02:21:44;1.80;99.90
5792;DHT22;2922;53.482;10.006;2024-01-15T02:24:10;1.80;99.90
5792;DHT22;2922;53.482;10.006;2024-01-15T02:26:37;1.80;99.90
5792;DHT22;2922;53.482;10.006;2024-01-15T02:29:04;1.80;99.90
5792;DHT22;2922;53.482;10.006;2024-01-15T02:31:30;1.80;99.90
5792;DHT22;2922;53.482;10.006;2024-01-15T02:33:56;1.80;99.90
5792;DHT22;2922;53.482;10.006;2024-01-15T02:36:21;1.90;99.90
5792;DHT22;2922;53.482;10.006;2024-01-15T02:38:47;1.90;99.90
5792;DHT22;2922;53.482;10.006;2024-01-15T02:41:12;1.90;99.90
5792;DHT22;2922;53.482;10.006;2024-01-15T02:43:40;1.90;99.90
5792;DHT22;2922;53.482;10.006;2024-01-15T02:46:06;1.90;99.90
5792;DHT22;2922;53.482;10.006;2024-01-15T02:48:31;1.90;99.90
5792;DHT22;2922;53.482;10.006;2024-01-15T02:50:58;2.00;99.90
5792;DHT22;2922;53.482;10.006;2024-01-15T02:53:23;2.00;99.90
5792;DHT22;2922;53.482;10.006;2024-01-15T02:55:49;2.00;99.90
5792;DHT22;2922;53.482;10.006;2024-01-15T02:58:14;2.00;99.90
5792;DHT22;2922;53.482;10.006;2024-01-15T03:00:40;2.00;99.90
5792;DHT22;2922;53.482;10.006;2024-01-15T03:03:05;2.00;99.90
5792;DHT22;2922;53.482;10.006;2024-01-15T03:05:31;1.90;99.90
5792;DHT22;2922;53.482;10.006;2024-01-15T03:07:56;1.90;99.90
5792;DHT22;2922;53.482;10.006;2024-01-15T03:10:22;1.90;99.90
5792;DHT22;2922;53.482;10.006;2024-01-15T03:12:48;1.80;99.90
5792;DHT22;2922;53.482;10.006;2024-01-15T03:15:13;1.80;99.90
5792;DHT22;2922;53.482;10.006;2024-01-15T03:17:39;1.70;99.90
5792;DHT22;2922;53.482;10.006;2024-01-15T03:20:06;1.70;99.90
5792;DHT22;2922;53.482;10.006;2024-01-15T03:22:32;1.70;99.90
5792;DHT22;2922;53.482;10.006;2024-01-15T03:24:58;1.70;99.90
5792;DHT22;2922;53.482;10.006;2024-01-15T03:27:23;1.70;99.90
5792;DHT22;2922;53.482;10.006;2024-01-15T03:29:49;1.70;99.90
5792;DHT22;2922;53.482;10.006;2024-01-15T03:32:14;1.70;99.90
5792;DHT22;2922;53.482;10.006;2024-01-15T03:34:41;1.70;99.90
5792;DHT22;2922;53.482;10.006;2024-01-15T03:37:07;1.70;99.90
5792;DHT22;2922;53.482;10.006;2024-01-15T03:39:32;1.70;99.90
5792;DHT22;2922;53.482;10.006;2024-01-15T03:41:58;1.80;99.90
5792;DHT22;2922;53.482;10.006;2024-01-15T03:44:23;1.80;99.90
5792;DHT22;2922;53.482;10.006;2024-01-15T03:46:49;1.70;99.90
5792;DHT22;2922;53.482;10.006;2024-01-15T03:49:15;1.70;99.90
5792;DHT22;2922;53.482;10.006;2024-01-15T03:51:40;1.70;99.90
5792;DHT22;2922;53.482;10.006;2024-01-15T03:54:06;1.70;99.90
5792;DHT22;2922;53.482;10.006;2024-01-15T03:56:31;1.70;99.90
5792;DHT22;2922;53.482;10.006;2024-01-15T03:58:57;1.70;99.90
5792;DHT22;2922;53.482;10.006;2024-01-15T04:01:23;1.70;99.90
5792;DHT22;2922;53.482;10.006;2024-01-15T04:03:48;1.70;99.90
5792;DHT22;2922;53.482;10.006;2024-01-15T04:06:14;1.80;99.90
5792;DHT22;2922;53.482;10.006;2024-01-15T04:08:39;1.80;99.90
5792;DHT22;2922;53.482;10.006;2024-01-15T04:11:05;1.80;99.90
5792;DHT22;2922;53.482;10.006;2024-01-15T04:13:33;1.90;99.90
5792;DHT22;2922;53.482;10.006;2024-01-15T04:16:00;1.90;99.90
5792;DHT22;2922;53.482;10.006;2024-01-15T04:18:26;1.90;99.90
5792;DHT22;2922;53.482;10.006;2024-01-15T04:20:51;1.90;99.90
5792;DHT22;2922;53.482;10.006;2024-01-15T04:23:17;1.90;99.90
5792;DHT22;2922;53.482;10.006;2024-01-15T04:25:42;1.90;99.90
5792;DHT22;2922;53.482;10.006;2024-01-15T04:28:09;1.90;99.90
5792;DHT22;2922;53.482;10.006;2024-01-15T04:30:34;1.90;99.90
5792;DHT22;2922;53.482;10.006;2024-01-15T04:33:00;1.90;99.90
5792;DHT22;2922;53.482;10.006;2024-01-15T04:35:26;1.90;99.90
5792;DHT22;2922;53.482;10.006;2024-01-15T04:37:52;1.90;99.90
5792;DHT22;2922;53.482;10.006;2024-01-15T04:40:17;1.80;99.90
5792;DHT22;2922;53.482;10.006;2024-01-15T04:42:43;1.80;99.90
5792;DHT22;2922;53.482;10.006;2024-01-15T04:45:11;1.80;99.90
5792;DHT22;2922;53.482;10.006;2024-01-15T04:47:37;1.80;99.90
5792;DHT22;2922;53.482;10.006;2024-01-15T04:50:04;1.80;99.90
5792;DHT22;2922;53.482;10.006;2024-01-15T04:52:29;1.80;99.90
5792;DHT22;2922;53.482;10.006;2024-01-15T04:54:55;1.80;99.90
5792;DHT22;2922;53.482;10.006;2024-01-15T04:57:20;1.80;99.90
5792;DHT22;2922;53.482;10.006;2024-01-15T04:59:46;1.80;99.90
5792;DHT22;2922;53.482;10.006;2024-01-15T05:02:11;1.80;99.90
5792;DHT22;2922;53.482;10.006;2024-01-15T05:04:37;1.80;99.90
5792;DHT22;2922;53.482;10.006;2024-01-15T05:07:03;1.80;99.90
5792;DHT22;2922;53.482;10.006;2024-01-15T05:09:28;1.80;99.90
5792;DHT22;2922;53.482;10.006;2024-01-15T05:11:54;1.80;99.90
5792;DHT22;2922;53.482;10.006;2024-01-15T05:14:19;1.80;99.90
5792;DHT22;2922;53.482;10.006;2024-01-15T05:16:49;1.70;99.90
5792;DHT22;2922;53.482;10.006;2024-01-15T05:19:15;1.80;99.90
5792;DHT22;2922;53.482;10.006;2024-01-15T05:21:40;1.80;99.90
5792;DHT22;2922;53.482;10.006;2024-01-15T05:24:06;1.80;99.90
5792;DHT22;2922;53.482;10.006;2024-01-15T05:26:31;1.80;99.90
5792;DHT22;2922;53.482;10.006;2024-01-15T05:28:57;1.80;99.90
5792;DHT22;2922;53.482;10.006;2024-01-15T05:31:22;1.80;99.90
5792;DHT22;2922;53.482;10.006;2024-01-15T05:33:48;1.80;99.90
5792;DHT22;2922;53.482;10.006;2024-01-15T05:36:14;1.80;99.90
5792;DHT22;2922;53.482;10.006;2024-01-15T05:38:39;1.80;99.90
5792;DHT22;2922;53.482;10.006;2024-01-15T05:41:05;1.90;99.90
5792;DHT22;2922;53.482;10.006;2024-01-15T05:43:31;1.90;99.90
5792;DHT22;2922;53.482;10.006;2024-01-15T05:45:56;1.90;99.90
5792;DHT22;2922;53.482;10.006;2024-01-15T05:48:22;1.90;99.90
5792;DHT22;2922;53.482;10.006;2024-01-15T05:50:47;1.90;99.90
5792;DHT22;2922;53.482;10.006;2024-01-15T05:53:13;2.00;99.90
5792;DHT22;2922;53.482;10.006;2024-01-15T05:55:39;2.00;99.90
5792;DHT22;2922;53.482;10.006;2024-01-15T05:58:05;2.10;99.90
5792;DHT22;2922;53.482;10.006;2024-01-15T06:00:30;2.10;99.90
5792;DHT22;2922;53.482;10.006;2024-01-15T06:02:58;2.10;99.90
5792;DHT22;2922;53.482;10.006;2024-01-15T06:05:24;2.10;99.90
5792;DHT22;2922;53.482;10.006;2024-01-15T06:07:50;2.10;99.90
5792;DHT22;2922;53.482;10.006;2024-01-15T06:10:16;2.20;99.90
5792;DHT22;2922;53.482;10.006;2024-01-15T06:12:43;2.10;99.90
5792;DHT22;2922;53.482;10.006;2024-01-15T06:15:09;2.10;99.90
5792;DHT22;2922;53.482;10.006;2024-01-15T06:17:35;2.10;99.90
5792;DHT22;2922;53.482;10.006;2024-01-15T06:20:00;2.10;99.90
5792;DHT22;2922;53.482;10.006;2024-01-15T06:22:26;2.10;99.90
5792;DHT22;2922;53.482;10.006;2024-01-15T06:24:51;2.10;99.90
5792;DHT22;2922;53.482;10.006;2024-01-15T06:27:17;2.00;99.90
5792;DHT22;2922;53.482;10.006;2024-01-15T06:29:45;2.10;99.90
5792;DHT22;2922;53.482;10.006;2024-01-15T06:32:14;2.00;99.90
5792;DHT22;2922;53.482;10.006;2024-01-15T06:34:40;2.10;99.90
5792;DHT22;2922;53.482;10.006;2024-01-15T06:37:06;2.00;99.90
5792;DHT22;2922;53.482;10.006;2024-01-15T06:39:31;2.00;99.90
5792;DHT22;2922;53.482;10.006;2024-01-15T06:41:57;2.00;99.90
5792;DHT22;2922;53.482;10.006;2024-01-15T06:44:23;2.00;99.90
5792;DHT22;2922;53.482;10.006;2024-01-15T06:46:48;2.00;99.90
5792;DHT22;2922;53.482;10.006;2024-01-15T06:49:14;2.00;99.90
5792;DHT22;2922;53.482;10.006;2024-01-15T06:51:40;2.00;99.90
5792;DHT22;2922;53.482;10.006;2024-01-15T06:54:05;2.00;99.90
5792;DHT22;2922;53.482;10.006;2024-01-15T06:56:32;2.00;99.90
5792;DHT22;2922;53.482;10.006;2024-01-15T06:58:58;1.90;99.90
5792;DHT22;2922;53.482;10.006;2024-01-15T07:01:23;1.90;99.90
5792;DHT22;2922;53.482;10.006;2024-01-15T07:03:49;1.90;99.90
5792;DHT22;2922;53.482;10.006;2024-01-15T07:06:15;1.90;99.90
5792;DHT22;2922;53.482;10.006;2024-01-15T07:08:41;1.90;99.90
5792;DHT22;2922;53.482;10.006;2024-01-15T07:11:07;1.90;99.90
5792;DHT22;2922;53.482;10.006;2024-01-15T07:13:33;1.90;99.90
5792;DHT22;2922;53.482;10.006;2024-01-15T07:15:58;1.90;99.90
5792;DHT22;2922;53.482;10.006;2024-01-15T07:18:24;1.90;99.90
5792;DHT22;2922;53.482;10.006;2024-01-15T07:20:50;1.90;99.90
5792;DHT22;2922;53.482;10.006;2024-01-15T07:23:16;1.90;99.90
5792;DHT22;2922;53.482;10.006;2024-01-15T07:25:42;1.90;99.90
5792;DHT22;2922;53.482;10.006;2024-01-15T07:28:08;1.90;99.90
5792;DHT22;2922;53.482;10.006;2024-01-15T07:30:34;1.90;99.90
5792;DHT22;2922;53.482;10.006;2024-01-15T07:32:59;1.90;99.90
5792;DHT22;2922;53.482;10.006;2024-01-15T07:35:25;1.90;99.90
5792;DHT22;2922;53.482;10.006;2024-01-15T07:37:50;2.00;99.90
5792;DHT22;2922;53.482;10.006;2024-01-15T07:40:16;2.00;99.90
5792;DHT22;2922;53.482;10.006;2024-01-15T07:42:42;2.00;99.90
5792;DHT22;2922;53.482;10.006;2024-01-15T07:45:08;2.10;99.90
5792;DHT22;2922;53.482;10.006;2024-01-15T07:47:34;2.00;99.90
5792;DHT22;2922;53.482;10.006;2024-01-15T07:50:00;2.00;99.90
5792;DHT22;2922;53.482;10.006;2024-01-15T07:52:26;2.10;99.90
5792;DHT22;2922;53.482;10.006;2024-01-15T07:54:51;2.10;99.90
5792;DHT22;2922;53.482;10.006;2024-01-15T07:57:17;2.10;99.90
5792;DHT22;2922;53.482;10.006;2024-01-15T07:59:43;2.10;99.90
5792;DHT22;2922;53.482;10.006;2024-01-15T08:02:08;2.10;99.90
5792;DHT22;2922;53.482;10.006;2024-01-15T08:04:36;2.10;99.90
5792;DHT22;2922;53.482;10.006;2024-01-15T08:07:02;2.10;99.90
5792;DHT22;2922;53.482;10.006;2024-01-15T08:09:28;2.10;99.90
5792;DHT22;2922;53.482;10.006;2024-01-15T08:11:54;2.10;99.90
5792;DHT22;2922;53.482;10.006;2024-01-15T08:14:20;2.10;99.90
5792;DHT22;2922;53.482;10.006;2024-01-15T08:16:46;2.10;99.90
5792;DHT22;2922;53.482;10.006;2024-01-15T08:19:11;2.10;99.90
5792;DHT22;2922;53.482;10.006;2024-01-15T08:21:37;2.10;99.90
5792;DHT22;2922;53.482;10.006;2024-01-15T08:24:03;2.10;99.90
5792;DHT22;2922;53.482;10.006;2024-01-15T08:26:29;2.10;99.90
5792;DHT22;2922;53.482;10.006;2024-01-15T08:28:55;2.10;99.90
5792;DHT22;2922;53.482;10.006;2024-01-15T08:31:20;2.10;99.90
5792;DHT22;2922;53.482;10.006;2024-01-15T08:33:46;2.00;99.90
5792;DHT22;2922;53.482;10.006;2024-01-15T08:36:12;2.00;99.90
5792;DHT22;2922;53.482;10.006;2024-01-15T08:38:37;2.00;99.90
5792;DHT22;2922;53.482;10.006;2024-01-15T08:41:03;2.00;99.90
5792;DHT22;2922;53.482;10.006;2024-01-15T08:43:29;2.00;99.90
5792;DHT22;2922;53.482;10.006;2024-01-15T08:45:57;2.00;99.90
5792;DHT22;2922;53.482;10.006;2024-01-15T08:48:22;2.00;99.90
5792;DHT22;2922;53.482;10.006;2024-01-15T08:50:48;1.90;99.90
5792;DHT22;2922;53.482;10.006;2024-01-15T08:53:14;2.00;99.90
5792;DHT22;2922;53.482;10.006;2024-01-15T08:55:40;1.90;99.90
5792;DHT22;2922;53.482;10.006;2024-01-15T08:58:08;1.90;99.90
5792;DHT22;2922;53.482;10.006;2024-01-15T09:00:34;1.90;99.90
5792;DHT22;2922;53.482;10.006;2024-01-15T09:02:59;1.90;99.90
5792;DHT22;2922;53.482;10.006;2024-01-15T09:05:25;1.90;99.90
5792;DHT22;2922;53.482;10.006;2024-01-15T09:07:50;1.90;99.90
5792;DHT22;2922;53.482;10.006;2024-01-15T09:10:18;1.90;99.90
5792;DHT22;2922;53.482;10.006;2024-01-15T09:12:43;1.90;99.90
5792;DHT22;2922;53.482;10.006;2024-01-15T09:15:09;2.00;99.90
5792;DHT22;2922;53.482;10.006;2024-01-15T09:17:35;1.90;99.90
5792;DHT22;2922;53.482;10.006;2024-01-15T09:20:00;2.00;99.90
5792;DHT22;2922;53.482;10.006;2024-01-15T09:22:26;2.00;99.90
5792;DHT22;2922;53.482;10.006;2024-01-15T09:24:52;2.00;99.90
5792;DHT22;2922;53.482;10.006;2024-01-15T09:27:18;2.00;99.90
5792;DHT22;2922;53.482;10.006;2024-01-15T09:29:43;2.10;99.90
5792;DHT22;2922;53.482;10.006;2024-01-15T09:32:11;2.10;99.90
5792;DHT22;2922;53.482;10.006;2024-01-15T09:34:38;2.10;99.90
5792;DHT22;2922;53.482;10.006;2024-01-15T09:37:04;2.10;99.90
5792;DHT22;2922;53.482;10.006;2024-01-15T09:39:30;2.10;99.90
5792;DHT22;2922;53.482;10.006;2024-01-15T09:41:57;2.10;99.90
5792;DHT22;2922;53.482;10.006;2024-01-15T09:44:23;2.10;99.90
5792;DHT22;2922;53.482;10.006;2024-01-15T09:46:49;2.10;99.90
5792;DHT22;2922;53.482;10.006;2024-01-15T09:49:17;2.00;99.90
5792;DHT22;2922;53.482;10.006;2024-01-15T09:51:43;2.00;99.90
5792;DHT22;2922;53.482;10.006;2024-01-15T09:54:09;2.10;99.90
5792;DHT22;2922;53.482;10.006;2024-01-15T09:56:35;2.10;99.90
5792;DHT22;2922;53.482;10.006;2024-01-15T09:59:01;2.10;99.90
5792;DHT22;2922;53.482;10.006;2024-01-15T10:01:28;2.10;99.90
5792;DHT22;2922;53.482;10.006;2024-01-15T10:03:54;2.20;99.90
5792;DHT22;2922;53.482;10.006;2024-01-15T10:06:21;2.20;99.90
5792;DHT22;2922;53.482;10.006;2024-01-15T10:08:51;2.30;99.90
5792;DHT22;2922;53.482;10.006;2024-01-15T10:11:17;2.30;99.90
5792;DHT22;2922;53.482;10.006;2024-01-15T10:13:43;2.30;99.90
5792;DHT22;2922;53.482;10.006;2024-01-15T10:16:09;2.20;99.90
5792;DHT22;2922;53.482;10.006;2024-01-15T10:18:35;2.20;99.90
5792;DHT22;2922;53.482;10.006;2024-01-15T10:21:03;2.20;99.90
5792;DHT22;2922;53.482;10.006;2024-01-15T10:23:31;2.10;99.90
5792;DHT22;2922;53.482;10.006;2024-01-15T10:25:57;2.00;99.90
5792;DHT22;2922;53.482;10.006;2024-01-15T10:28:26;2.00;99.90
5792;DHT22;2922;53.482;10.006;2024-01-15T10:30:53;1.90;99.90
5792;DHT22;2922;53.482;10.006;2024-01-15T10:33:22;1.90;99.90
5792;DHT22;2922;53.482;10.006;2024-01-15T10:35:53;1.80;99.90
5792;DHT22;2922;53.482;10.006;2024-01-15T10:38:20;1.80;99.90
5792;DHT22;2922;53.482;10.006;2024-01-15T10:40:48;1.70;99.90
5792;DHT22;2922;53.482;10.006;2024-01-15T10:43:16;1.80;99.90
5792;DHT22;2922;53.482;10.006;2024-01-15T10:45:49;1.80;99.90
5792;DHT22;2922;53.482;10.006;2024-01-15T10:48:19;1.80;99.90
5792;DHT22;2922;53.482;10.006;2024-01-15T10:50:48;1.80;99.90
5792;DHT22;2922;53.482;10.006;2024-01-15T10:53:15;1.80;99.90
5792;DHT22;2922;53.482;10.006;2024-01-15T10:55:41;1.70;99.90
5792;DHT22;2922;53.482;10.006;2024-01-15T10:58:08;1.60;99.90
5792;DHT22;2922;53.482;10.006;2024-01-15T11:00:36;1.50;99.90
5792;DHT22;2922;53.482;10.006;2024-01-15T11:03:07;1.40;99.90
5792;DHT22;2922;53.482;10.006;2024-01-15T11:05:36;1.40;99.90
5792;DHT22;2922;53.482;10.006;2024-01-15T11:13:20;1.30;99.90
5792;DHT22;2922;53.482;10.006;2024-01-15T11:15:59;1.30;99.90
5792;DHT22;2922;53.482;10.006;2024-01-15T11:18:35;1.30;99.90
5792;DHT22;2922;53.482;10.006;2024-01-15T11:24:00;1.20;99.90
5792;DHT22;2922;53.482;10.006;2024-01-15T11:26:45;1.20;99.90
5792;DHT22;2922;53.482;10.006;2024-01-15T11:34:21;1.20;99.90
5792;DHT22;2922;53.482;10.006;2024-01-15T11:39:39;1.20;99.90
5792;DHT22;2922;53.482;10.006;2024-01-15T11:42:08;1.20;99.90
5792;DHT22;2922;53.482;10.006;2024-01-15T11:44:34;1.20;99.90
5792;DHT22;2922;53.482;10.006;2024-01-15T11:47:02;1.20;99.90
5792;DHT22;2922;53.482;10.006;2024-01-15T11:52:21;1.20;99.90
5792;DHT22;2922;53.482;10.006;2024-01-15T11:55:14;1.20;99.90
5792;DHT22;2922;53.482;10.006;2024-01-15T11:57:49;1.20;99.90
5792;DHT22;2922;53.482;10.006;2024-01-15T12:00:16;1.20;99.90
5792;DHT22;2922;53.482;10.006;2024-01-15T12:02:46;1.20;99.90
5792;DHT22;2922;53.482;10.006;2024-01-15T12:05:16;1.20;99.90
5792;DHT22;2922;53.482;10.006;2024-01-15T12:07:43;1.20;99.90
5792;DHT22;2922;53.482;10.006;2024-01-15T12:10:10;1.20;99.90
5792;DHT22;2922;53.482;10.006;2024-01-15T12:15:09;1.10;99.90
5792;DHT22;2922;53.482;10.006;2024-01-15T12:17:35;1.10;99.90
5792;DHT22;2922;53.482;10.006;2024-01-15T12:20:03;1.10;99.90
5792;DHT22;2922;53.482;10.006;2024-01-15T12:22:28;1.10;99.90
5792;DHT22;2922;53.482;10.006;2024-01-15T12:24:54;1.10;99.90
5792;DHT22;2922;53.482;10.006;2024-01-15T12:27:20;1.10;99.90
5792;DHT22;2922;53.482;10.006;2024-01-15T12:29:46;1.10;99.90
5792;DHT22;2922;53.482;10.006;2024-01-15T12:32:12;1.10;99.90
5792;DHT22;2922;53.482;10.006;2024-01-15T12:34:38;1.10;99.90
5792;DHT22;2922;53.482;10.006;2024-01-15T12:37:04;1.10;99.90
5792;DHT22;2922;53.482;10.006;2024-01-15T12:39:29;1.10;99.90
5792;DHT22;2922;53.482;10.006;2024-01-15T12:41:55;1.10;99.90
5792;DHT22;2922;53.482;10.006;2024-01-15T12:44:20;1.10;99.90
5792;DHT22;2922;53.482;10.006;2024-01-15T12:46:47;1.10;99.90
5792;DHT22;2922;53.482;10.006;2024-01-15T12:49:15;1.10;99.90
5792;DHT22;2922;53.482;10.006;2024-01-15T12:51:41;1.00;99.90
5792;DHT22;2922;53.482;10.006;2024-01-15T12:54:06;1.10;99.90
5792;DHT22;2922;53.482;10.006;2024-01-15T12:56:32;1.00;99.90
5792;DHT22;2922;53.482;10.006;2024-01-15T12:58:58;1.00;99.90
5792;DHT22;2922;53.482;10.006;2024-01-15T13:01:23;1.00;99.90
5792;DHT22;2922;53.482;10.006;2024-01-15T13:03:49;1.00;99.90
5792;DHT22;2922;53.482;10.006;2024-01-15T13:06:14;1.00;99.90
5792;DHT22;2922;53.482;10.006;2024-01-15T13:08:40;1.00;99.90
5792;DHT22;2922;53.482;10.006;2024-01-15T13:11:06;1.00;99.90
5792;DHT22;2922;53.482;10.006;2024-01-15T13:13:31;1.10;99.90
5792;DHT22;2922;53.482;10.006;2024-01-15T13:15:59;1.10;99.90
5792;DHT22;2922;53.482;10.006;2024-01-15T13:18:25;1.10;99.90
5792;DHT22;2922;53.482;10.006;2024-01-15T13:20:51;1.10;99.90
5792;DHT22;2922;53.482;10.006;2024-01-15T13:23:16;1.10;99.90
5792;DHT22;2922;53.482;10.006;2024-01-15T13:25:43;1.10;99.90
5792;DHT22;2922;53.482;10.006;2024-01-15T13:28:08;1.10;99.90
5792;DHT22;2922;53.482;10.006;2024-01-15T13:30:34;1.10;99.90
5792;DHT22;2922;53.482;10.006;2024-01-15T13:32:59;1.10;99.90
5792;DHT22;2922;53.482;10.006;2024-01-15T13:35:29;1.10;99.90
5792;DHT22;2922;53.482;10.006;2024-01-15T13:37:55;1.10;99.90
5792;DHT22;2922;53.482;10.006;2024-01-15T13:40:20;1.10;99.90
5792;DHT22;2922;53.482;10.006;2024-01-15T13:42:46;1.10;99.90
5792;DHT22;2922;53.482;10.006;2024-01-15T13:45:12;1.10;99.90
5792;DHT22;2922;53.482;10.006;2024-01-15T13:47:42;1.10;99.90
5792;DHT22;2922;53.482;10.006;2024-01-15T13:50:09;1.10;99.90
5792;DHT22;2922;53.482;10.006;2024-01-15T13:52:35;1.10;99.90
5792;DHT22;2922;53.482;10.006;2024-01-15T13:55:01;1.20;99.90
5792;DHT22;2922;53.482;10.006;2024-01-15T13:57:27;1.20;99.90
5792;DHT22;2922;53.482;10.006;2024-01-15T13:59:52;1.20;99.90
5792;DHT22;2922;53.482;10.006;2024-01-15T14:02:18;1.20;99.90
5792;DHT22;2922;53.482;10.006;2024-01-15T14:04:45;1.20;99.90
5792;DHT22;2922;53.482;10.006;2024-01-15T14:07:11;1.20;99.90
5792;DHT22;2922;53.482;10.006;2024-01-15T14:09:36;1.20;99.90
5792;DHT22;2922;53.482;10.006;2024-01-15T14:12:03;1.20;99.90
5792;DHT22;2922;53.482;10.006;2024-01-15T14:14:28;1.20;99.90
5792;DHT22;2922;53.482;10.006;2024-01-15T14:16:54;1.20;99.90
5792;DHT22;2922;53.482;10.006;2024-01-15T14:19:19;1.20;99.90
5792;DHT22;2922;53.482;10.006;2024-01-15T14:21:46;1.20;99.90
5792;DHT22;2922;53.482;10.006;2024-01-15T14:24:11;1.20;99.90
5792;DHT22;2922;53.482;10.006;2024-01-15T14:26:37;1.20;99.90
5792;DHT22;2922;53.482;10.006;2024-01-15T14:29:02;1.20;99.90
5792;DHT22;2922;53.482;10.006;2024-01-15T14:31:28;1.20;99.90
5792;DHT22;2922;53.482;10.006;2024-01-15T14:33:54;1.20;99.90
5792;DHT22;2922;53.482;10.006;2024-01-15T14:36:20;1.20;99.90
5792;DHT22;2922;53.482;10.006;2024-01-15T14:38:46;1.20;99.90
5792;DHT22;2922;53.482;10.006;2024-01-15T14:41:11;1.20;99.90
5792;DHT22;2922;53.482;10.006;2024-01-15T14:43:37;1.20;99.90
5792;DHT22;2922;53.482;10.006;2024-01-15T14:46:03;1.20;99.90
5792;DHT22;2922;53.482;10.006;2024-01-15T14:48:28;1.20;99.90
5792;DHT22;2922;53.482;10.006;2024-01-15T14:50:55;1.20;99.90
5792;DHT22;2922;53.482;10.006;2024-01-15T14:53:20;1.10;99.90
5792;DHT22;2922;53.482;10.006;2024-01-15T14:55:46;1.10;99.90
5792;DHT22;2922;53.482;10.006;2024-01-15T14:58:12;1.10;99.90
5792;DHT22;2922;53.482;10.006;2024-01-15T15:00:37;1.10;99.90
5792;DHT22;2922;53.482;10.006;2024-01-15T15:03:03;1.10;99.90
5792;DHT22;2922;53.482;10.006;2024-01-15T15:05:29;1.10;99.90
5792;DHT22;2922;53.482;10.006;2024-01-15T15:07:55;1.10;99.90
5792;DHT22;2922;53.482;10.006;2024-01-15T15:10:21;1.10;99.90
5792;DHT22;2922;53.482;10.006;2024-01-15T15:12:47;1.00;99.90
5792;DHT22;2922;53.482;10.006;2024-01-15T15:15:12;1.10;99.90
5792;DHT22;2922;53.482;10.006;2024-01-15T15:17:38;1.00;99.90
5792;DHT22;2922;53.482;10.006;2024-01-15T15:20:08;1.00;99.90
5792;DHT22;2922;53.482;10.006;2024-01-15T15:22:34;1.00;99.90
5792;DHT22;2922;53.482;10.006;2024-01-15T15:24:59;1.00;99.90
5792;DHT22;2922;53.482;10.006;2024-01-15T15:27:25;1.00;99.90
5792;DHT22;2922;53.482;10.006;2024-01-15T15:29:53;1.00;99.90
5792;DHT22;2922;53.482;10.006;2024-01-15T15:32:18;0.90;99.90
5792;DHT22;2922;53.482;10.006;2024-01-15T15:34:44;0.90;99.90
5792;DHT22;2922;53.482;10.006;2024-01-15T15:37:09;0.90;99.90
5792;DHT22;2922;53.482;10.006;2024-01-15T15:39:35;0.90;99.90
5792;DHT22;2922;53.482;10.006;2024-01-15T15:42:00;0.90;99.90
5792;DHT22;2922;53.482;10.006;2024-01-15T15:44:26;0.90;99.90
5792;DHT22;2922;53.482;10.006;2024-01-15T15:46:51;0.90;99.90
5792;DHT22;2922;53.482;10.006;2024-01-15T15:49:17;0.90;99.90
5792;DHT22;2922;53.482;10.006;2024-01-15T15:51:43;0.90;99.90
5792;DHT22;2922;53.482;10.006;2024-01-15T15:54:08;0.90;99.90
5792;DHT22;2922;53.482;10.006;2024-01-15T15:56:34;0.90;99.90
5792;DHT22;2922;53.482;10.006;2024-01-15T15:59:04;0.90;99.90
5792;DHT22;2922;53.482;10.006;2024-01-15T16:01:30;0.90;99.90
5792;DHT22;2922;53.482;10.006;2024-01-15T16:03:56;0.90;99.90
5792;DHT22;2922;53.482;10.006;2024-01-15T16:06:21;0.90;99.90
5792;DHT22;2922;53.482;10.006;2024-01-15T16:08:47;0.90;99.90
5792;DHT22;2922;53.482;10.006;2024-01-15T16:11:13;0.90;99.90
5792;DHT22;2922;53.482;10.006;2024-01-15T16:13:38;0.90;99.90
5792;DHT22;2922;53.482;10.006;2024-01-15T16:16:04;0.90;99.90